sensor_id;sensor_type;location;lat;lon;timestamp;P1;durP1;ratioP1;P2;durP2;ratioP2
41943;SDS011;27636;52.610;13.244;2024-02-21T00:00:36;12.98;;;3.88;;
41943;SDS011;27636;52.610;13.244;2024-02-21T00:05:41;12.13;;;4.43;;
41943;SDS011;27636;52.610;13.244;2024-02-21T00:10:46;20.85;;;4.85;;
41943;SDS011;27636;52.610;13.244;2024-02-21T00:15:50;8.77;;;3.47;;
41943;SDS011;27636;52.610;13.244;2024-02-21T00:20:55;33.15;;;5.57;;
41943;SDS011;27636;52.610;13.244;2024-02-21T00:26:01;21.08;;;4.22;;
41943;SDS011;27636;52.610;13.244;2024-02-21T00:31:06;8.43;;;4.22;;
41943;SDS011;27636;52.610;13.244;2024-02-21T00:36:10;22.90;;;4.83;;
41943;SDS011;27636;52.610;13.244;2024-02-21T00:41:15;21.83;;;3.60;;
41943;SDS011;27636;52.610;13.244;2024-02-21T00:51:23;17.70;;;4.47;;
41943;SDS011;27636;52.610;13.244;2024-02-21T00:56:29;10.45;;;3.45;;
41943;SDS011;27636;52.610;13.244;2024-02-21T01:01:33;13.93;;;3.15;;
41943;SDS011;27636;52.610;13.244;2024-02-21T01:06:37;9.50;;;2.67;;
41943;SDS011;27636;52.610;13.244;2024-02-21T01:11:43;17.40;;;3.92;;
41943;SDS011;27636;52.610;13.244;2024-02-21T01:16:48;11.48;;;5.43;;
41943;SDS011;27636;52.610;13.244;2024-02-21T01:21:52;9.18;;;3.40;;
41943;SDS011;27636;52.610;13.244;2024-02-21T01:26:57;10.52;;;3.42;;
41943;SDS011;27636;52.610;13.244;2024-02-21T01:32:00;8.68;;;3.38;;
41943;SDS011;27636;52.610;13.244;2024-02-21T01:37:06;17.73;;;3.72;;
41943;SDS011;27636;52.610;13.244;2024-02-21T01:42:13;14.30;;;3.55;;
41943;SDS011;27636;52.610;13.244;2024-02-21T01:47:17;11.45;;;3.30;;
41943;SDS011;27636;52.610;13.244;2024-02-21T01:52:21;16.73;;;4.30;;
41943;SDS011;27636;52.610;13.244;2024-02-21T01:57:26;16.77;;;3.65;;
41943;SDS011;27636;52.610;13.244;2024-02-21T02:02:32;19.35;;;3.28;;
41943;SDS011;27636;52.610;13.244;2024-02-21T02:07:37;11.90;;;4.05;;
41943;SDS011;27636;52.610;13.244;2024-02-21T02:12:42;12.98;;;4.03;;
41943;SDS011;27636;52.610;13.244;2024-02-21T02:17:47;4.72;;;2.50;;
41943;SDS011;27636;52.610;13.244;2024-02-21T02:22:53;8.70;;;2.78;;
41943;SDS011;27636;52.610;13.244;2024-02-21T02:27:59;12.17;;;3.30;;
41943;SDS011;27636;52.610;13.244;2024-02-21T02:33:03;11.77;;;2.60;;
41943;SDS011;27636;52.610;13.244;2024-02-21T02:38:11;13.02;;;3.35;;
41943;SDS011;27636;52.610;13.244;2024-02-21T02:43:21;10.93;;;3.15;;
41943;SDS011;27636;52.610;13.244;2024-02-21T02:48:27;10.00;;;2.53;;
41943;SDS011;27636;52.610;13.244;2024-02-21T02:53:31;7.15;;;3.20;;
41943;SDS011;27636;52.610;13.244;2024-02-21T02:58:37;15.30;;;3.13;;
41943;SDS011;27636;52.610;13.244;2024-02-21T03:03:40;12.57;;;3.13;;
41943;SDS011;27636;52.610;13.244;2024-02-21T03:08:46;10.68;;;3.40;;
41943;SDS011;27636;52.610;13.244;2024-02-21T03:13:52;14.73;;;4.50;;
41943;SDS011;27636;52.610;13.244;2024-02-21T03:23:59;11.68;;;3.88;;
41943;SDS011;27636;52.610;13.244;2024-02-21T03:29:05;12.70;;;4.00;;
41943;SDS011;27636;52.610;13.244;2024-02-21T03:34:11;13.60;;;3.83;;
41943;SDS011;27636;52.610;13.244;2024-02-21T03:39:17;9.93;;;2.90;;
41943;SDS011;27636;52.610;13.244;2024-02-21T03:44:26;18.30;;;5.30;;
41943;SDS011;27636;52.610;13.244;2024-02-21T03:49:31;14.93;;;3.78;;
41943;SDS011;27636;52.610;13.244;2024-02-21T03:54:37;17.15;;;5.68;;
41943;SDS011;27636;52.610;13.244;2024-02-21T03:59:42;12.27;;;4.03;;
41943;SDS011;27636;52.610;13.244;2024-02-21T04:04:47;15.38;;;4.15;;
41943;SDS011;27636;52.610;13.244;2024-02-21T04:09:54;12.02;;;3.45;;
41943;SDS011;27636;52.610;13.244;2024-02-21T04:15:00;16.23;;;6.20;;
41943;SDS011;27636;52.610;13.244;2024-02-21T04:20:04;10.93;;;4.22;;
41943;SDS011;27636;52.610;13.244;2024-02-21T04:30:25;9.27;;;3.55;;
41943;SDS011;27636;52.610;13.244;2024-02-21T04:35:29;11.57;;;3.17;;
41943;SDS011;27636;52.610;13.244;2024-02-21T04:40:33;16.70;;;4.25;;
41943;SDS011;27636;52.610;13.244;2024-02-21T04:45:39;20.55;;;5.07;;
41943;SDS011;27636;52.610;13.244;2024-02-21T04:50:44;9.80;;;3.63;;
41943;SDS011;27636;52.610;13.244;2024-02-21T04:55:49;7.85;;;3.95;;
41943;SDS011;27636;52.610;13.244;2024-02-21T05:00:54;8.45;;;3.35;;
41943;SDS011;27636;52.610;13.244;2024-02-21T05:05:58;16.13;;;6.03;;
41943;SDS011;27636;52.610;13.244;2024-02-21T05:11:03;10.67;;;3.90;;
41943;SDS011;27636;52.610;13.244;2024-02-21T05:16:09;19.25;;;5.55;;
41943;SDS011;27636;52.610;13.244;2024-02-21T05:21:14;9.65;;;4.22;;
41943;SDS011;27636;52.610;13.244;2024-02-21T05:26:22;24.17;;;5.65;;
41943;SDS011;27636;52.610;13.244;2024-02-21T05:31:28;15.38;;;3.95;;
41943;SDS011;27636;52.610;13.244;2024-02-21T05:36:58;17.33;;;4.93;;
41943;SDS011;27636;52.610;13.244;2024-02-21T05:47:09;13.50;;;4.50;;
41943;SDS011;27636;52.610;13.244;2024-02-21T05:52:15;27.88;;;5.55;;
41943;SDS011;27636;52.610;13.244;2024-02-21T05:57:19;19.50;;;6.20;;
41943;SDS011;27636;52.610;13.244;2024-02-21T06:02:25;10.83;;;4.47;;
41943;SDS011;27636;52.610;13.244;2024-02-21T06:07:29;18.27;;;5.47;;
41943;SDS011;27636;52.610;13.244;2024-02-21T06:12:32;15.43;;;5.88;;
41943;SDS011;27636;52.610;13.244;2024-02-21T06:17:38;21.70;;;5.47;;
41943;SDS011;27636;52.610;13.244;2024-02-21T06:27:45;25.30;;;5.63;;
41943;SDS011;27636;52.610;13.244;2024-02-21T06:32:51;13.63;;;5.95;;
41943;SDS011;27636;52.610;13.244;2024-02-21T06:37:55;12.00;;;5.07;;
41943;SDS011;27636;52.610;13.244;2024-02-21T06:43:01;15.43;;;5.70;;
41943;SDS011;27636;52.610;13.244;2024-02-21T06:48:09;13.27;;;5.68;;
41943;SDS011;27636;52.610;13.244;2024-02-21T06:53:14;22.45;;;6.15;;
41943;SDS011;27636;52.610;13.244;2024-02-21T06:58:18;25.77;;;6.07;;
41943;SDS011;27636;52.610;13.244;2024-02-21T07:03:24;12.45;;;6.07;;
41943;SDS011;27636;52.610;13.244;2024-02-21T07:13:34;22.70;;;5.80;;
41943;SDS011;27636;52.610;13.244;2024-02-21T07:18:39;24.42;;;6.90;;
41943;SDS011;27636;52.610;13.244;2024-02-21T07:23:44;16.30;;;6.53;;
41943;SDS011;27636;52.610;13.244;2024-02-21T07:28:48;15.38;;;5.60;;
41943;SDS011;27636;52.610;13.244;2024-02-21T07:38:59;15.63;;;6.35;;
41943;SDS011;27636;52.610;13.244;2024-02-21T07:44:03;23.33;;;5.67;;
41943;SDS011;27636;52.610;13.244;2024-02-21T07:49:09;23.48;;;6.68;;
41943;SDS011;27636;52.610;13.244;2024-02-21T07:59:19;18.70;;;5.78;;
41943;SDS011;27636;52.610;13.244;2024-02-21T08:04:25;20.35;;;6.20;;
41943;SDS011;27636;52.610;13.244;2024-02-21T08:09:30;20.80;;;7.78;;
41943;SDS011;27636;52.610;13.244;2024-02-21T08:14:37;21.27;;;5.93;;
41943;SDS011;27636;52.610;13.244;2024-02-21T08:19:43;23.75;;;5.82;;
41943;SDS011;27636;52.610;13.244;2024-02-21T08:24:47;29.20;;;6.90;;
41943;SDS011;27636;52.610;13.244;2024-02-21T08:29:51;16.55;;;7.30;;
41943;SDS011;27636;52.610;13.244;2024-02-21T08:35:03;20.75;;;5.90;;
41943;SDS011;27636;52.610;13.244;2024-02-21T08:40:09;16.40;;;5.93;;
41943;SDS011;27636;52.610;13.244;2024-02-21T08:45:13;15.77;;;5.93;;
41943;SDS011;27636;52.610;13.244;2024-02-21T08:50:19;14.50;;;6.18;;
41943;SDS011;27636;52.610;13.244;2024-02-21T08:55:31;17.90;;;7.82;;
41943;SDS011;27636;52.610;13.244;2024-02-21T09:00:35;16.48;;;6.30;;
41943;SDS011;27636;52.610;13.244;2024-02-21T09:05:41;19.70;;;6.78;;
41943;SDS011;27636;52.610;13.244;2024-02-21T09:10:45;16.88;;;6.78;;
41943;SDS011;27636;52.610;13.244;2024-02-21T09:15:49;16.70;;;6.00;;
41943;SDS011;27636;52.610;13.244;2024-02-21T09:20:55;21.27;;;6.55;;
41943;SDS011;27636;52.610;13.244;2024-02-21T09:26:00;21.52;;;6.47;;
41943;SDS011;27636;52.610;13.244;2024-02-21T09:31:06;17.00;;;6.28;;
41943;SDS011;27636;52.610;13.244;2024-02-21T09:36:12;15.98;;;6.55;;
41943;SDS011;27636;52.610;13.244;2024-02-21T09:41:17;20.30;;;6.43;;
41943;SDS011;27636;52.610;13.244;2024-02-21T09:46:30;13.13;;;5.43;;
41943;SDS011;27636;52.610;13.244;2024-02-21T09:51:48;14.52;;;5.53;;
41943;SDS011;27636;52.610;13.244;2024-02-21T09:56:54;20.52;;;6.43;;
41943;SDS011;27636;52.610;13.244;2024-02-21T10:01:58;17.83;;;6.55;;
41943;SDS011;27636;52.610;13.244;2024-02-21T10:07:06;14.10;;;5.30;;
41943;SDS011;27636;52.610;13.244;2024-02-21T10:12:11;14.90;;;5.88;;
41943;SDS011;27636;52.610;13.244;2024-02-21T10:17:16;15.85;;;6.18;;
41943;SDS011;27636;52.610;13.244;2024-02-21T10:22:24;14.98;;;5.65;;
41943;SDS011;27636;52.610;13.244;2024-02-21T10:27:31;12.25;;;4.45;;
41943;SDS011;27636;52.610;13.244;2024-02-21T10:32:37;13.52;;;4.60;;
41943;SDS011;27636;52.610;13.244;2024-02-21T10:37:54;12.88;;;4.18;;
41943;SDS011;27636;52.610;13.244;2024-02-21T10:43:00;10.52;;;4.43;;
41943;SDS011;27636;52.610;13.244;2024-02-21T10:48:07;12.30;;;4.10;;
41943;SDS011;27636;52.610;13.244;2024-02-21T10:53:17;13.00;;;4.07;;
41943;SDS011;27636;52.610;13.244;2024-02-21T10:58:29;13.38;;;4.32;;
41943;SDS011;27636;52.610;13.244;2024-02-21T11:03:36;9.85;;;4.05;;
41943;SDS011;27636;52.610;13.244;2024-02-21T11:08:43;11.40;;;4.57;;
41943;SDS011;27636;52.610;13.244;2024-02-21T11:13:47;10.43;;;4.28;;
41943;SDS011;27636;52.610;13.244;2024-02-21T11:18:52;17.73;;;4.23;;
41943;SDS011;27636;52.610;13.244;2024-02-21T11:24:09;9.93;;;3.70;;
41943;SDS011;27636;52.610;13.244;2024-02-21T11:29:13;8.52;;;4.05;;
41943;SDS011;27636;52.610;13.244;2024-02-21T11:34:27;10.10;;;4.45;;
41943;SDS011;27636;52.610;13.244;2024-02-21T11:39:32;8.38;;;3.13;;
41943;SDS011;27636;52.610;13.244;2024-02-21T11:44:36;10.25;;;3.45;;
41943;SDS011;27636;52.610;13.244;2024-02-21T11:49:46;15.40;;;3.25;;
41943;SDS011;27636;52.610;13.244;2024-02-21T11:54:55;9.68;;;3.00;;
41943;SDS011;27636;52.610;13.244;2024-02-21T12:00:11;9.75;;;3.58;;
41943;SDS011;27636;52.610;13.244;2024-02-21T12:05:18;5.43;;;2.42;;
41943;SDS011;27636;52.610;13.244;2024-02-21T12:10:25;7.55;;;2.38;;
41943;SDS011;27636;52.610;13.244;2024-02-21T12:15:31;6.20;;;2.10;;
41943;SDS011;27636;52.610;13.244;2024-02-21T12:20:37;5.80;;;2.05;;
41943;SDS011;27636;52.610;13.244;2024-02-21T12:25:45;5.80;;;2.90;;
41943;SDS011;27636;52.610;13.244;2024-02-21T12:30:50;5.63;;;2.60;;
41943;SDS011;27636;52.610;13.244;2024-02-21T12:35:56;5.97;;;2.70;;
41943;SDS011;27636;52.610;13.244;2024-02-21T12:41:01;5.37;;;2.60;;
41943;SDS011;27636;52.610;13.244;2024-02-21T12:46:09;8.82;;;2.40;;
41943;SDS011;27636;52.610;13.244;2024-02-21T12:51:13;7.68;;;3.13;;
41943;SDS011;27636;52.610;13.244;2024-02-21T12:56:20;5.80;;;2.50;;
41943;SDS011;27636;52.610;13.244;2024-02-21T13:01:24;6.45;;;1.85;;
41943;SDS011;27636;52.610;13.244;2024-02-21T13:06:29;8.35;;;2.67;;
41943;SDS011;27636;52.610;13.244;2024-02-21T13:11:35;6.75;;;2.20;;
41943;SDS011;27636;52.610;13.244;2024-02-21T13:16:40;5.82;;;2.10;;
41943;SDS011;27636;52.610;13.244;2024-02-21T13:21:44;4.97;;;1.70;;
41943;SDS011;27636;52.610;13.244;2024-02-21T13:26:51;3.92;;;1.75;;
41943;SDS011;27636;52.610;13.244;2024-02-21T13:31:56;4.25;;;1.65;;
41943;SDS011;27636;52.610;13.244;2024-02-21T13:37:00;6.47;;;2.47;;
41943;SDS011;27636;52.610;13.244;2024-02-21T13:42:06;6.55;;;2.28;;
41943;SDS011;27636;52.610;13.244;2024-02-21T13:47:10;4.70;;;2.03;;
41943;SDS011;27636;52.610;13.244;2024-02-21T13:52:20;5.38;;;2.22;;
41943;SDS011;27636;52.610;13.244;2024-02-21T13:57:25;7.03;;;2.15;;
41943;SDS011;27636;52.610;13.244;2024-02-21T14:07:34;4.13;;;2.33;;
41943;SDS011;27636;52.610;13.244;2024-02-21T14:12:40;7.97;;;2.13;;
41943;SDS011;27636;52.610;13.244;2024-02-21T14:27:54;8.38;;;2.30;;
41943;SDS011;27636;52.610;13.244;2024-02-21T14:32:58;9.30;;;2.65;;
41943;SDS011;27636;52.610;13.244;2024-02-21T14:38:05;7.22;;;2.38;;
41943;SDS011;27636;52.610;13.244;2024-02-21T14:43:12;4.85;;;1.90;;
41943;SDS011;27636;52.610;13.244;2024-02-21T14:48:17;8.88;;;2.67;;
41943;SDS011;27636;52.610;13.244;2024-02-21T14:53:21;6.53;;;2.45;;
41943;SDS011;27636;52.610;13.244;2024-02-21T14:58:27;8.35;;;1.92;;
41943;SDS011;27636;52.610;13.244;2024-02-21T15:03:31;5.50;;;1.85;;
41943;SDS011;27636;52.610;13.244;2024-02-21T15:08:35;6.80;;;1.95;;
41943;SDS011;27636;52.610;13.244;2024-02-21T15:13:42;4.75;;;2.53;;
41943;SDS011;27636;52.610;13.244;2024-02-21T15:23:51;7.28;;;2.00;;
41943;SDS011;27636;52.610;13.244;2024-02-21T15:28:59;7.68;;;2.33;;
41943;SDS011;27636;52.610;13.244;2024-02-21T15:34:02;4.38;;;1.77;;
41943;SDS011;27636;52.610;13.244;2024-02-21T15:39:06;7.15;;;1.98;;
41943;SDS011;27636;52.610;13.244;2024-02-21T15:44:12;5.25;;;1.98;;
41943;SDS011;27636;52.610;13.244;2024-02-21T15:49:16;7.57;;;1.80;;
41943;SDS011;27636;52.610;13.244;2024-02-21T15:54:21;4.00;;;1.50;;
41943;SDS011;27636;52.610;13.244;2024-02-21T15:59:31;2.92;;;1.60;;
41943;SDS011;27636;52.610;13.244;2024-02-21T16:04:35;3.38;;;1.58;;
41943;SDS011;27636;52.610;13.244;2024-02-21T16:09:39;4.65;;;1.70;;
41943;SDS011;27636;52.610;13.244;2024-02-21T16:14:48;6.75;;;1.77;;
41943;SDS011;27636;52.610;13.244;2024-02-21T16:19:52;4.47;;;1.73;;
41943;SDS011;27636;52.610;13.244;2024-02-21T16:24:57;3.55;;;1.83;;
41943;SDS011;27636;52.610;13.244;2024-02-21T16:30:02;4.50;;;1.38;;
41943;SDS011;27636;52.610;13.244;2024-02-21T16:35:11;5.32;;;1.52;;
41943;SDS011;27636;52.610;13.244;2024-02-21T16:40:16;4.57;;;1.95;;
41943;SDS011;27636;52.610;13.244;2024-02-21T16:45:23;3.92;;;2.25;;
41943;SDS011;27636;52.610;13.244;2024-02-21T16:50:27;11.65;;;2.70;;
41943;SDS011;27636;52.610;13.244;2024-02-21T16:55:31;5.70;;;1.95;;
41943;SDS011;27636;52.610;13.244;2024-02-21T17:00:38;8.55;;;2.60;;
41943;SDS011;27636;52.610;13.244;2024-02-21T17:05:43;12.48;;;3.97;;
41943;SDS011;27636;52.610;13.244;2024-02-21T17:10:53;10.07;;;3.30;;
41943;SDS011;27636;52.610;13.244;2024-02-21T17:15:59;8.82;;;2.80;;
41943;SDS011;27636;52.610;13.244;2024-02-21T17:21:04;6.60;;;2.30;;
41943;SDS011;27636;52.610;13.244;2024-02-21T17:26:09;9.15;;;2.80;;
41943;SDS011;27636;52.610;13.244;2024-02-21T17:31:15;8.07;;;2.83;;
41943;SDS011;27636;52.610;13.244;2024-02-21T17:36:20;21.10;;;2.85;;
41943;SDS011;27636;52.610;13.244;2024-02-21T17:41:23;13.68;;;2.95;;
41943;SDS011;27636;52.610;13.244;2024-02-21T17:46:29;6.93;;;2.40;;
41943;SDS011;27636;52.610;13.244;2024-02-21T17:51:34;12.35;;;2.65;;
41943;SDS011;27636;52.610;13.244;2024-02-21T17:56:39;4.97;;;2.40;;
41943;SDS011;27636;52.610;13.244;2024-02-21T18:01:44;5.53;;;2.63;;
41943;SDS011;27636;52.610;13.244;2024-02-21T18:06:48;6.35;;;1.95;;
41943;SDS011;27636;52.610;13.244;2024-02-21T18:11:52;7.13;;;2.80;;
41943;SDS011;27636;52.610;13.244;2024-02-21T18:16:58;11.25;;;3.10;;
41943;SDS011;27636;52.610;13.244;2024-02-21T18:22:03;7.40;;;2.47;;
41943;SDS011;27636;52.610;13.244;2024-02-21T18:27:07;10.38;;;2.92;;
41943;SDS011;27636;52.610;13.244;2024-02-21T18:32:14;8.80;;;2.85;;
41943;SDS011;27636;52.610;13.244;2024-02-21T18:37:18;12.63;;;3.08;;
41943;SDS011;27636;52.610;13.244;2024-02-21T18:42:22;7.28;;;2.70;;
41943;SDS011;27636;52.610;13.244;2024-02-21T18:47:28;5.22;;;2.92;;
41943;SDS011;27636;52.610;13.244;2024-02-21T18:52:33;9.13;;;2.60;;
41943;SDS011;27636;52.610;13.244;2024-02-21T18:57:36;6.82;;;3.17;;
41943;SDS011;27636;52.610;13.244;2024-02-21T19:02:42;6.40;;;2.83;;
41943;SDS011;27636;52.610;13.244;2024-02-21T19:07:47;8.57;;;2.97;;
41943;SDS011;27636;52.610;13.244;2024-02-21T19:12:53;6.22;;;3.17;;
41943;SDS011;27636;52.610;13.244;2024-02-21T19:17:58;6.22;;;2.38;;
41943;SDS011;27636;52.610;13.244;2024-02-21T19:23:03;12.65;;;3.70;;
41943;SDS011;27636;52.610;13.244;2024-02-21T19:28:09;10.70;;;2.95;;
41943;SDS011;27636;52.610;13.244;2024-02-21T19:33:17;6.32;;;3.45;;
41943;SDS011;27636;52.610;13.244;2024-02-21T19:38:22;11.40;;;2.45;;
41943;SDS011;27636;52.610;13.244;2024-02-21T19:43:27;8.40;;;2.53;;
41943;SDS011;27636;52.610;13.244;2024-02-21T19:48:32;8.73;;;3.08;;
41943;SDS011;27636;52.610;13.244;2024-02-21T19:53:36;8.52;;;3.08;;
41943;SDS011;27636;52.610;13.244;2024-02-21T19:58:41;9.65;;;2.97;;
41943;SDS011;27636;52.610;13.244;2024-02-21T20:03:46;8.70;;;3.83;;
41943;SDS011;27636;52.610;13.244;2024-02-21T20:08:52;6.00;;;3.20;;
41943;SDS011;27636;52.610;13.244;2024-02-21T20:13:56;11.90;;;3.47;;
41943;SDS011;27636;52.610;13.244;2024-02-21T20:19:02;7.27;;;2.97;;
41943;SDS011;27636;52.610;13.244;2024-02-21T20:24:06;9.55;;;3.35;;
41943;SDS011;27636;52.610;13.244;2024-02-21T20:29:16;5.60;;;2.85;;
41943;SDS011;27636;52.610;13.244;2024-02-21T20:34:22;9.20;;;3.15;;
41943;SDS011;27636;52.610;13.244;2024-02-21T20:39:32;9.13;;;2.65;;
41943;SDS011;27636;52.610;13.244;2024-02-21T20:44:37;9.02;;;3.22;;
41943;SDS011;27636;52.610;13.244;2024-02-21T20:49:44;9.70;;;3.17;;
41943;SDS011;27636;52.610;13.244;2024-02-21T20:54:48;9.15;;;3.65;;
41943;SDS011;27636;52.610;13.244;2024-02-21T20:59:52;9.25;;;2.97;;
41943;SDS011;27636;52.610;13.244;2024-02-21T21:04:58;6.78;;;2.70;;
41943;SDS011;27636;52.610;13.244;2024-02-21T21:10:02;6.93;;;2.97;;
41943;SDS011;27636;52.610;13.244;2024-02-21T21:15:08;13.68;;;4.55;;
41943;SDS011;27636;52.610;13.244;2024-02-21T21:20:14;14.45;;;2.85;;
41943;SDS011;27636;52.610;13.244;2024-02-21T21:25:20;10.10;;;2.97;;
41943;SDS011;27636;52.610;13.244;2024-02-21T21:30:25;8.60;;;3.13;;
41943;SDS011;27636;52.610;13.244;2024-02-21T21:35:31;7.00;;;3.15;;
41943;SDS011;27636;52.610;13.244;2024-02-21T21:40:38;10.13;;;3.05;;
41943;SDS011;27636;52.610;13.244;2024-02-21T21:45:44;5.93;;;2.80;;
41943;SDS011;27636;52.610;13.244;2024-02-21T21:50:53;4.85;;;2.25;;
41943;SDS011;27636;52.610;13.244;2024-02-21T21:55:57;6.15;;;3.03;;
41943;SDS011;27636;52.610;13.244;2024-02-21T22:01:00;5.38;;;2.42;;
41943;SDS011;27636;52.610;13.244;2024-02-21T22:06:06;6.22;;;2.65;;
41943;SDS011;27636;52.610;13.244;2024-02-21T22:11:10;5.60;;;2.53;;
41943;SDS011;27636;52.610;13.244;2024-02-21T22:16:17;4.15;;;1.92;;
41943;SDS011;27636;52.610;13.244;2024-02-21T22:21:23;9.32;;;2.88;;
41943;SDS011;27636;52.610;13.244;2024-02-21T22:26:27;6.15;;;2.30;;
41943;SDS011;27636;52.610;13.244;2024-02-21T22:31:30;6.82;;;2.35;;
41943;SDS011;27636;52.610;13.244;2024-02-21T22:36:36;6.00;;;2.40;;
41943;SDS011;27636;52.610;13.244;2024-02-21T22:41:41;4.18;;;2.47;;
41943;SDS011;27636;52.610;13.244;2024-02-21T22:46:48;6.30;;;2.38;;
41943;SDS011;27636;52.610;13.244;2024-02-21T22:51:57;6.72;;;3.05;;
41943;SDS011;27636;52.610;13.244;2024-02-21T22:57:01;11.10;;;3.08;;
41943;SDS011;27636;52.610;13.244;2024-02-21T23:02:05;11.60;;;2.67;;
41943;SDS011;27636;52.610;13.244;2024-02-21T23:07:12;7.00;;;2.30;;
41943;SDS011;27636;52.610;13.244;2024-02-21T23:12:15;4.32;;;1.55;;
41943;SDS011;27636;52.610;13.244;2024-02-21T23:17:21;6.38;;;2.60;;
41943;SDS011;27636;52.610;13.244;2024-02-21T23:22:27;9.27;;;1.87;;
41943;SDS011;27636;52.610;13.244;2024-02-21T23:32:35;4.73;;;1.70;;
41943;SDS011;27636;52.610;13.244;2024-02-21T23:37:41;8.97;;;2.73;;
41943;SDS011;27636;52.610;13.244;2024-02-21T23:42:44;9.88;;;2.28;;
41943;SDS011;27636;52.610;13.244;2024-02-21T23:52:56;4.28;;;1.88;;
41943;SDS011;27636;52.610;13.244;2024-02-21T23:58:00;8.40;;;1.60;;
